sensor_id;sensor_type;location;lat;lon;timestamp;temperature;humidity
20598;DHT22;10457;48.770;11.446;2022-07-22T00:03:53;20.30;99.90
20598;DHT22;10457;48.770;11.446;2022-07-22T00:09:14;20.20;99.90
20598;DHT22;10457;48.770;11.446;2022-07-22T00:14:36;20.10;99.90
20598;DHT22;10457;48.770;11.446;2022-07-22T00:19:59;20.00;99.90
20598;DHT22;10457;48.770;11.446;2022-07-22T00:25:21;20.00;99.90
20598;DHT22;10457;48.770;11.446;2022-07-22T00:30:43;19.90;99.90
20598;DHT22;10457;48.770;11.446;2022-07-22T00:36:06;19.90;99.90
20598;DHT22;10457;48.770;11.446;2022-07-22T00:41:28;19.90;99.90
20598;DHT22;10457;48.770;11.446;2022-07-22T00:46:50;19.90;99.90
20598;DHT22;10457;48.770;11.446;2022-07-22T00:52:12;19.80;99.90
20598;DHT22;10457;48.770;11.446;2022-07-22T00:57:34;19.70;99.90
20598;DHT22;10457;48.770;11.446;2022-07-22T01:02:56;19.60;99.90
20598;DHT22;10457;48.770;11.446;2022-07-22T01:08:19;19.50;99.90
20598;DHT22;10457;48.770;11.446;2022-07-22T01:13:41;19.60;99.90
20598;DHT22;10457;48.770;11.446;2022-07-22T01:19:04;19.50;99.90
20598;DHT22;10457;48.770;11.446;2022-07-22T01:24:27;19.50;99.90
20598;DHT22;10457;48.770;11.446;2022-07-22T01:29:49;19.40;99.90
20598;DHT22;10457;48.770;11.446;2022-07-22T01:35:11;19.30;99.90
20598;DHT22;10457;48.770;11.446;2022-07-22T01:40:34;19.40;99.90
20598;DHT22;10457;48.770;11.446;2022-07-22T01:45:56;19.30;99.90
20598;DHT22;10457;48.770;11.446;2022-07-22T01:51:18;19.30;99.90
20598;DHT22;10457;48.770;11.446;2022-07-22T01:56:44;19.30;99.90
20598;DHT22;10457;48.770;11.446;2022-07-22T02:02:05;19.30;99.90
20598;DHT22;10457;48.770;11.446;2022-07-22T02:07:27;19.30;99.90
20598;DHT22;10457;48.770;11.446;2022-07-22T02:12:50;19.20;99.90
20598;DHT22;10457;48.770;11.446;2022-07-22T02:18:13;19.10;99.90
20598;DHT22;10457;48.770;11.446;2022-07-22T02:23:37;19.10;99.90
20598;DHT22;10457;48.770;11.446;2022-07-22T02:29:00;19.00;99.90
20598;DHT22;10457;48.770;11.446;2022-07-22T02:34:22;18.90;99.90
20598;DHT22;10457;48.770;11.446;2022-07-22T02:39:43;18.80;99.90
20598;DHT22;10457;48.770;11.446;2022-07-22T02:45:09;18.70;99.90
20598;DHT22;10457;48.770;11.446;2022-07-22T02:50:31;18.60;99.90
20598;DHT22;10457;48.770;11.446;2022-07-22T02:55:54;18.40;99.90
20598;DHT22;10457;48.770;11.446;2022-07-22T03:01:17;18.40;99.90
20598;DHT22;10457;48.770;11.446;2022-07-22T03:06:45;18.40;99.90
20598;DHT22;10457;48.770;11.446;2022-07-22T03:12:12;18.30;99.90
20598;DHT22;10457;48.770;11.446;2022-07-22T03:17:36;18.30;99.90
20598;DHT22;10457;48.770;11.446;2022-07-22T03:23:00;18.30;99.90
20598;DHT22;10457;48.770;11.446;2022-07-22T03:28:21;18.20;99.90
20598;DHT22;10457;48.770;11.446;2022-07-22T03:33:47;18.10;99.90
20598;DHT22;10457;48.770;11.446;2022-07-22T03:39:09;18.00;99.90
20598;DHT22;10457;48.770;11.446;2022-07-22T03:44:30;18.00;99.90
20598;DHT22;10457;48.770;11.446;2022-07-22T03:49:54;18.00;99.90
20598;DHT22;10457;48.770;11.446;2022-07-22T03:55:21;18.00;99.90
20598;DHT22;10457;48.770;11.446;2022-07-22T04:00:46;18.00;99.90
20598;DHT22;10457;48.770;11.446;2022-07-22T04:06:09;18.10;99.90
20598;DHT22;10457;48.770;11.446;2022-07-22T04:11:45;18.10;99.90
20598;DHT22;10457;48.770;11.446;2022-07-22T04:17:07;18.20;99.90
20598;DHT22;10457;48.770;11.446;2022-07-22T04:22:30;18.20;99.90
20598;DHT22;10457;48.770;11.446;2022-07-22T04:27:51;18.40;99.90
20598;DHT22;10457;48.770;11.446;2022-07-22T04:33:14;18.40;99.90
20598;DHT22;10457;48.770;11.446;2022-07-22T04:38:37;18.50;99.90
20598;DHT22;10457;48.770;11.446;2022-07-22T04:44:01;18.40;99.90
20598;DHT22;10457;48.770;11.446;2022-07-22T04:49:25;18.40;99.90
20598;DHT22;10457;48.770;11.446;2022-07-22T04:54:51;18.60;99.90
20598;DHT22;10457;48.770;11.446;2022-07-22T05:00:14;18.70;99.90
20598;DHT22;10457;48.770;11.446;2022-07-22T05:05:44;18.90;99.90
20598;DHT22;10457;48.770;11.446;2022-07-22T05:11:09;19.10;99.90
20598;DHT22;10457;48.770;11.446;2022-07-22T05:16:31;19.40;99.90
20598;DHT22;10457;48.770;11.446;2022-07-22T05:21:52;19.60;99.90
20598;DHT22;10457;48.770;11.446;2022-07-22T05:27:15;19.80;99.90
20598;DHT22;10457;48.770;11.446;2022-07-22T05:32:37;20.20;99.90
20598;DHT22;10457;48.770;11.446;2022-07-22T05:37:59;22.00;93.40
20598;DHT22;10457;48.770;11.446;2022-07-22T05:43:22;23.00;86.40
20598;DHT22;10457;48.770;11.446;2022-07-22T05:48:44;23.50;82.20
20598;DHT22;10457;48.770;11.446;2022-07-22T05:54:11;23.90;80.90
20598;DHT22;10457;48.770;11.446;2022-07-22T05:59:35;24.20;77.30
20598;DHT22;10457;48.770;11.446;2022-07-22T06:04:57;23.50;83.10
20598;DHT22;10457;48.770;11.446;2022-07-22T06:10:20;23.10;83.80
20598;DHT22;10457;48.770;11.446;2022-07-22T06:15:43;22.70;86.20
20598;DHT22;10457;48.770;11.446;2022-07-22T06:21:06;22.50;87.60
20598;DHT22;10457;48.770;11.446;2022-07-22T06:26:28;22.40;87.70
20598;DHT22;10457;48.770;11.446;2022-07-22T06:31:51;22.70;86.10
20598;DHT22;10457;48.770;11.446;2022-07-22T06:37:13;22.80;85.90
20598;DHT22;10457;48.770;11.446;2022-07-22T06:42:34;22.90;83.90
20598;DHT22;10457;48.770;11.446;2022-07-22T06:48:15;23.30;79.40
20598;DHT22;10457;48.770;11.446;2022-07-22T06:53:37;23.60;78.10
20598;DHT22;10457;48.770;11.446;2022-07-22T06:58:59;23.80;76.90
20598;DHT22;10457;48.770;11.446;2022-07-22T07:04:22;24.00;75.00
20598;DHT22;10457;48.770;11.446;2022-07-22T07:09:44;24.10;73.10
20598;DHT22;10457;48.770;11.446;2022-07-22T07:15:12;24.40;72.50
20598;DHT22;10457;48.770;11.446;2022-07-22T07:20:35;24.60;70.50
20598;DHT22;10457;48.770;11.446;2022-07-22T07:25:59;25.00;69.20
20598;DHT22;10457;48.770;11.446;2022-07-22T07:31:22;25.20;68.00
20598;DHT22;10457;48.770;11.446;2022-07-22T07:36:47;25.80;64.20
20598;DHT22;10457;48.770;11.446;2022-07-22T07:42:09;26.20;64.80
20598;DHT22;10457;48.770;11.446;2022-07-22T07:47:31;26.60;59.40
20598;DHT22;10457;48.770;11.446;2022-07-22T07:52:58;26.70;57.60
20598;DHT22;10457;48.770;11.446;2022-07-22T07:58:21;27.00;59.70
20598;DHT22;10457;48.770;11.446;2022-07-22T08:03:43;27.40;56.30
20598;DHT22;10457;48.770;11.446;2022-07-22T08:09:06;27.80;52.50
20598;DHT22;10457;48.770;11.446;2022-07-22T08:14:32;27.80;55.20
20598;DHT22;10457;48.770;11.446;2022-07-22T08:20:00;28.10;52.40
20598;DHT22;10457;48.770;11.446;2022-07-22T08:25:24;28.40;52.40
20598;DHT22;10457;48.770;11.446;2022-07-22T08:30:45;28.80;54.50
20598;DHT22;10457;48.770;11.446;2022-07-22T08:36:08;29.00;51.70
20598;DHT22;10457;48.770;11.446;2022-07-22T08:41:35;28.80;51.30
20598;DHT22;10457;48.770;11.446;2022-07-22T08:46:59;29.30;50.60
20598;DHT22;10457;48.770;11.446;2022-07-22T08:53:10;29.60;49.50
20598;DHT22;10457;48.770;11.446;2022-07-22T08:58:49;29.20;50.70
20598;DHT22;10457;48.770;11.446;2022-07-22T09:04:18;29.10;52.20
20598;DHT22;10457;48.770;11.446;2022-07-22T09:09:41;28.80;49.20
20598;DHT22;10457;48.770;11.446;2022-07-22T09:15:27;29.10;50.10
20598;DHT22;10457;48.770;11.446;2022-07-22T09:21:11;28.50;50.30
20598;DHT22;10457;48.770;11.446;2022-07-22T09:26:54;29.00;49.60
20598;DHT22;10457;48.770;11.446;2022-07-22T09:32:39;29.10;51.20
20598;DHT22;10457;48.770;11.446;2022-07-22T09:38:28;29.80;49.30
20598;DHT22;10457;48.770;11.446;2022-07-22T09:43:52;30.00;49.80
20598;DHT22;10457;48.770;11.446;2022-07-22T09:49:30;30.20;48.10
20598;DHT22;10457;48.770;11.446;2022-07-22T09:55:13;29.90;47.40
20598;DHT22;10457;48.770;11.446;2022-07-22T10:00:37;29.70;48.40
20598;DHT22;10457;48.770;11.446;2022-07-22T10:06:03;30.20;47.40
20598;DHT22;10457;48.770;11.446;2022-07-22T10:11:27;30.80;48.60
20598;DHT22;10457;48.770;11.446;2022-07-22T10:16:49;30.80;46.90
20598;DHT22;10457;48.770;11.446;2022-07-22T10:28:20;31.50;44.60
20598;DHT22;10457;48.770;11.446;2022-07-22T10:33:48;31.70;43.30
20598;DHT22;10457;48.770;11.446;2022-07-22T10:39:14;31.70;43.20
20598;DHT22;10457;48.770;11.446;2022-07-22T10:44:48;32.50;45.90
20598;DHT22;10457;48.770;11.446;2022-07-22T10:50:45;34.00;40.90
20598;DHT22;10457;48.770;11.446;2022-07-22T10:56:19;35.90;36.30
20598;DHT22;10457;48.770;11.446;2022-07-22T11:01:44;37.20;35.00
20598;DHT22;10457;48.770;11.446;2022-07-22T11:07:07;36.60;35.20
20598;DHT22;10457;48.770;11.446;2022-07-22T11:12:29;38.30;33.40
20598;DHT22;10457;48.770;11.446;2022-07-22T11:17:56;40.20;30.40
20598;DHT22;10457;48.770;11.446;2022-07-22T11:23:17;40.20;28.50
20598;DHT22;10457;48.770;11.446;2022-07-22T11:28:41;40.00;28.30
20598;DHT22;10457;48.770;11.446;2022-07-22T11:34:09;39.80;30.30
20598;DHT22;10457;48.770;11.446;2022-07-22T11:39:31;40.40;29.20
20598;DHT22;10457;48.770;11.446;2022-07-22T11:44:54;39.60;31.50
20598;DHT22;10457;48.770;11.446;2022-07-22T11:50:15;40.10;27.80
20598;DHT22;10457;48.770;11.446;2022-07-22T11:55:40;40.40;28.70
20598;DHT22;10457;48.770;11.446;2022-07-22T12:01:03;40.30;28.70
20598;DHT22;10457;48.770;11.446;2022-07-22T12:06:27;40.60;27.40
20598;DHT22;10457;48.770;11.446;2022-07-22T12:11:53;41.60;27.90
20598;DHT22;10457;48.770;11.446;2022-07-22T12:17:18;42.30;25.00
20598;DHT22;10457;48.770;11.446;2022-07-22T12:22:49;42.40;24.50
20598;DHT22;10457;48.770;11.446;2022-07-22T12:28:11;40.90;25.50
20598;DHT22;10457;48.770;11.446;2022-07-22T12:33:34;40.40;26.30
20598;DHT22;10457;48.770;11.446;2022-07-22T12:38:55;40.80;27.70
20598;DHT22;10457;48.770;11.446;2022-07-22T12:44:19;40.90;26.40
20598;DHT22;10457;48.770;11.446;2022-07-22T12:49:43;41.00;27.60
20598;DHT22;10457;48.770;11.446;2022-07-22T12:55:05;41.10;26.50
20598;DHT22;10457;48.770;11.446;2022-07-22T13:00:28;41.40;25.10
20598;DHT22;10457;48.770;11.446;2022-07-22T13:05:54;41.80;25.50
20598;DHT22;10457;48.770;11.446;2022-07-22T13:11:16;42.10;25.20
20598;DHT22;10457;48.770;11.446;2022-07-22T13:16:38;41.70;26.10
20598;DHT22;10457;48.770;11.446;2022-07-22T13:22:01;40.40;28.20
20598;DHT22;10457;48.770;11.446;2022-07-22T13:27:23;38.20;27.70
20598;DHT22;10457;48.770;11.446;2022-07-22T13:32:45;36.20;30.80
20598;DHT22;10457;48.770;11.446;2022-07-22T13:38:07;35.10;31.80
20598;DHT22;10457;48.770;11.446;2022-07-22T13:43:28;34.00;33.60
20598;DHT22;10457;48.770;11.446;2022-07-22T13:48:50;32.90;34.70
20598;DHT22;10457;48.770;11.446;2022-07-22T13:54:15;33.00;35.30
20598;DHT22;10457;48.770;11.446;2022-07-22T13:59:37;32.60;34.10
20598;DHT22;10457;48.770;11.446;2022-07-22T14:04:59;32.20;34.60
20598;DHT22;10457;48.770;11.446;2022-07-22T14:10:22;32.20;34.80
20598;DHT22;10457;48.770;11.446;2022-07-22T14:15:43;32.00;34.20
20598;DHT22;10457;48.770;11.446;2022-07-22T14:21:05;31.90;35.10
20598;DHT22;10457;48.770;11.446;2022-07-22T14:26:28;32.10;35.10
20598;DHT22;10457;48.770;11.446;2022-07-22T14:31:50;32.30;35.20
20598;DHT22;10457;48.770;11.446;2022-07-22T14:37:11;32.30;34.20
20598;DHT22;10457;48.770;11.446;2022-07-22T14:42:34;32.20;35.00
20598;DHT22;10457;48.770;11.446;2022-07-22T14:47:56;32.40;34.00
20598;DHT22;10457;48.770;11.446;2022-07-22T14:53:17;32.60;34.60
20598;DHT22;10457;48.770;11.446;2022-07-22T14:58:41;32.60;34.70
20598;DHT22;10457;48.770;11.446;2022-07-22T15:04:02;32.50;34.10
20598;DHT22;10457;48.770;11.446;2022-07-22T15:09:24;32.50;34.50
20598;DHT22;10457;48.770;11.446;2022-07-22T15:14:47;32.30;34.10
20598;DHT22;10457;48.770;11.446;2022-07-22T15:20:09;31.90;34.30
20598;DHT22;10457;48.770;11.446;2022-07-22T15:25:31;31.90;34.70
20598;DHT22;10457;48.770;11.446;2022-07-22T15:30:55;31.60;35.40
20598;DHT22;10457;48.770;11.446;2022-07-22T15:36:17;31.60;35.40
20598;DHT22;10457;48.770;11.446;2022-07-22T15:41:39;31.60;34.80
20598;DHT22;10457;48.770;11.446;2022-07-22T15:47:02;31.40;34.80
20598;DHT22;10457;48.770;11.446;2022-07-22T15:52:23;31.50;34.90
20598;DHT22;10457;48.770;11.446;2022-07-22T15:57:45;31.60;35.90
20598;DHT22;10457;48.770;11.446;2022-07-22T16:03:22;31.50;35.80
20598;DHT22;10457;48.770;11.446;2022-07-22T16:08:44;31.50;35.20
20598;DHT22;10457;48.770;11.446;2022-07-22T16:14:05;31.50;34.80
20598;DHT22;10457;48.770;11.446;2022-07-22T16:19:28;31.40;34.90
20598;DHT22;10457;48.770;11.446;2022-07-22T16:24:50;31.50;35.00
20598;DHT22;10457;48.770;11.446;2022-07-22T16:30:12;31.40;34.90
20598;DHT22;10457;48.770;11.446;2022-07-22T16:35:35;31.30;35.00
20598;DHT22;10457;48.770;11.446;2022-07-22T16:40:56;31.20;35.90
20598;DHT22;10457;48.770;11.446;2022-07-22T16:46:18;31.20;36.10
20598;DHT22;10457;48.770;11.446;2022-07-22T16:51:41;31.20;36.10
20598;DHT22;10457;48.770;11.446;2022-07-22T16:57:02;31.30;35.90
20598;DHT22;10457;48.770;11.446;2022-07-22T17:02:24;31.10;36.10
20598;DHT22;10457;48.770;11.446;2022-07-22T17:07:47;31.10;36.50
20598;DHT22;10457;48.770;11.446;2022-07-22T17:13:09;30.90;36.30
20598;DHT22;10457;48.770;11.446;2022-07-22T17:18:31;30.90;35.70
20598;DHT22;10457;48.770;11.446;2022-07-22T17:23:58;30.90;36.70
20598;DHT22;10457;48.770;11.446;2022-07-22T17:29:19;30.80;36.80
20598;DHT22;10457;48.770;11.446;2022-07-22T17:34:41;30.50;37.70
20598;DHT22;10457;48.770;11.446;2022-07-22T17:40:05;30.50;38.10
20598;DHT22;10457;48.770;11.446;2022-07-22T17:45:30;30.40;37.70
20598;DHT22;10457;48.770;11.446;2022-07-22T17:50:52;30.30;38.30
20598;DHT22;10457;48.770;11.446;2022-07-22T17:56:15;30.10;38.60
20598;DHT22;10457;48.770;11.446;2022-07-22T18:01:37;30.00;39.10
20598;DHT22;10457;48.770;11.446;2022-07-22T18:06:58;29.70;39.00
20598;DHT22;10457;48.770;11.446;2022-07-22T18:12:21;29.50;39.30
20598;DHT22;10457;48.770;11.446;2022-07-22T18:17:43;29.50;39.10
20598;DHT22;10457;48.770;11.446;2022-07-22T18:23:04;29.50;39.40
20598;DHT22;10457;48.770;11.446;2022-07-22T18:28:28;29.40;39.60
20598;DHT22;10457;48.770;11.446;2022-07-22T18:33:49;29.40;39.80
20598;DHT22;10457;48.770;11.446;2022-07-22T18:39:11;29.30;40.20
20598;DHT22;10457;48.770;11.446;2022-07-22T18:44:34;29.10;40.80
20598;DHT22;10457;48.770;11.446;2022-07-22T18:49:55;28.90;40.60
20598;DHT22;10457;48.770;11.446;2022-07-22T18:55:17;28.80;41.90
20598;DHT22;10457;48.770;11.446;2022-07-22T19:00:40;28.60;42.20
20598;DHT22;10457;48.770;11.446;2022-07-22T19:06:02;28.40;42.40
20598;DHT22;10457;48.770;11.446;2022-07-22T19:11:24;28.30;43.40
20598;DHT22;10457;48.770;11.446;2022-07-22T19:16:47;28.00;44.10
20598;DHT22;10457;48.770;11.446;2022-07-22T19:22:08;27.80;44.10
20598;DHT22;10457;48.770;11.446;2022-07-22T19:27:30;27.60;44.70
20598;DHT22;10457;48.770;11.446;2022-07-22T19:32:53;27.50;47.50
20598;DHT22;10457;48.770;11.446;2022-07-22T19:38:14;27.40;47.30
20598;DHT22;10457;48.770;11.446;2022-07-22T19:43:36;27.20;49.30
20598;DHT22;10457;48.770;11.446;2022-07-22T19:48:59;27.00;48.90
20598;DHT22;10457;48.770;11.446;2022-07-22T19:54:21;26.90;49.90
20598;DHT22;10457;48.770;11.446;2022-07-22T19:59:42;26.70;50.40
20598;DHT22;10457;48.770;11.446;2022-07-22T20:05:06;26.60;51.40
20598;DHT22;10457;48.770;11.446;2022-07-22T20:10:28;26.40;50.60
20598;DHT22;10457;48.770;11.446;2022-07-22T20:15:50;26.40;49.90
20598;DHT22;10457;48.770;11.446;2022-07-22T20:21:14;26.20;50.50
20598;DHT22;10457;48.770;11.446;2022-07-22T20:26:35;26.00;51.80
20598;DHT22;10457;48.770;11.446;2022-07-22T20:31:57;25.90;51.60
20598;DHT22;10457;48.770;11.446;2022-07-22T20:37:20;25.80;52.20
20598;DHT22;10457;48.770;11.446;2022-07-22T20:42:41;25.60;52.30
20598;DHT22;10457;48.770;11.446;2022-07-22T20:48:03;25.40;54.30
20598;DHT22;10457;48.770;11.446;2022-07-22T20:53:27;25.20;55.10
20598;DHT22;10457;48.770;11.446;2022-07-22T20:58:48;25.10;55.50
20598;DHT22;10457;48.770;11.446;2022-07-22T21:04:10;24.90;55.80
20598;DHT22;10457;48.770;11.446;2022-07-22T21:09:33;24.80;55.90
20598;DHT22;10457;48.770;11.446;2022-07-22T21:14:54;24.80;55.50
20598;DHT22;10457;48.770;11.446;2022-07-22T21:20:18;24.70;55.70
20598;DHT22;10457;48.770;11.446;2022-07-22T21:25:42;24.70;56.10
20598;DHT22;10457;48.770;11.446;2022-07-22T21:31:03;24.60;56.60
20598;DHT22;10457;48.770;11.446;2022-07-22T21:36:25;24.60;56.80
20598;DHT22;10457;48.770;11.446;2022-07-22T21:41:48;24.50;57.10
20598;DHT22;10457;48.770;11.446;2022-07-22T21:47:09;24.40;57.60
20598;DHT22;10457;48.770;11.446;2022-07-22T21:52:30;24.40;58.20
20598;DHT22;10457;48.770;11.446;2022-07-22T21:57:53;24.30;58.40
20598;DHT22;10457;48.770;11.446;2022-07-22T22:03:15;24.20;57.90
20598;DHT22;10457;48.770;11.446;2022-07-22T22:08:36;24.30;58.30
20598;DHT22;10457;48.770;11.446;2022-07-22T22:13:59;24.30;58.60
20598;DHT22;10457;48.770;11.446;2022-07-22T22:19:20;24.20;58.60
20598;DHT22;10457;48.770;11.446;2022-07-22T22:24:42;24.30;58.60
20598;DHT22;10457;48.770;11.446;2022-07-22T22:30:06;24.20;59.70
20598;DHT22;10457;48.770;11.446;2022-07-22T22:35:28;24.10;59.50
20598;DHT22;10457;48.770;11.446;2022-07-22T22:40:50;24.10;60.60
20598;DHT22;10457;48.770;11.446;2022-07-22T22:46:13;24.00;59.80
20598;DHT22;10457;48.770;11.446;2022-07-22T22:51:34;24.00;59.30
20598;DHT22;10457;48.770;11.446;2022-07-22T22:56:56;24.00;60.30
20598;DHT22;10457;48.770;11.446;2022-07-22T23:02:19;23.90;60.80
20598;DHT22;10457;48.770;11.446;2022-07-22T23:07:40;23.90;60.80
20598;DHT22;10457;48.770;11.446;2022-07-22T23:13:02;23.90;61.40
20598;DHT22;10457;48.770;11.446;2022-07-22T23:18:25;23.90;60.80
20598;DHT22;10457;48.770;11.446;2022-07-22T23:23:46;23.90;62.00
20598;DHT22;10457;48.770;11.446;2022-07-22T23:29:08;23.90;61.10
20598;DHT22;10457;48.770;11.446;2022-07-22T23:34:31;23.90;61.10
20598;DHT22;10457;48.770;11.446;2022-07-22T23:39:52;24.00;60.40
20598;DHT22;10457;48.770;11.446;2022-07-22T23:45:13;23.90;60.20
20598;DHT22;10457;48.770;11.446;2022-07-22T23:50:36;23.80;60.20
20598;DHT22;10457;48.770;11.446;2022-07-22T23:55:58;23.80;62.00
